neil on the web!

ADDS Results

2224 UTC 25 January 2021

EGJB 252150Z 23005KT 9999 FEW030 03/M03 Q1019
EGJB 252050Z 24005KT 9999 FEW028 03/M03 Q1018
TAF EGJB 251957Z 2521/2606 25010KT 9999 FEW030
BECMG 2604/2606 19017KT
EGJJ 252150Z AUTO 23006KT 9999 HZ NCD 04/M02 Q1019
EGJJ 252120Z AUTO 23003KT 200V270 9999 NCD 04/M03 Q1019
EGJJ 252050Z AUTO 26003KT 240V300 9999 NCD 04/M03 Q1019
TAF EGJJ 251957Z 2521/2606 25007KT 9999 FEW040
BECMG 2604/2606 19015KT
EGKK 252150Z VRB02KT CAVOK 00/M02 Q1016
EGKK 252120Z 19003KT CAVOK 00/M02 Q1016
EGKK 252050Z 21003KT CAVOK 01/M02 Q1016
TAF EGKK 251703Z 2518/2624 30008KT CAVOK
PROB40 2600/2610 4000 BR
BECMG 2610/2613 20010KT BKN010
TEMPO 2611/2621 6000 RA BKN008
PROB30
TEMPO 2615/2621 4000 +RADZ BKN004
TEMPO 2621/2624 3000 -DZ BR BKN004
EGSS 252150Z AUTO 26004KT 9999 NCD 01/M02 Q1015
EGSS 252120Z AUTO 25005KT 9999 NCD 01/M02 Q1014
EGSS 252050Z AUTO 26006KT 9999 NCD 01/M01 Q1014
TAF EGSS 251707Z 2518/2624 27010KT CAVOK
PROB40 2604/2610 6000
BECMG 2607/2610 20006KT BKN025
BECMG 2610/2613 BKN010
TEMPO 2612/2619 6000 RA BKN006
PROB40
TEMPO 2615/2619 3000 RADZ BR BKN004
BECMG 2619/2622 3000 -DZ BR BKN004
PROB40
TEMPO 2621/2624 0300 DZ FG BKN001
EGGW 252150Z AUTO 27014KT 9999 NCD 01/M02 Q1015
EGGW 252120Z AUTO 27014KT 9999 NCD 01/M02 Q1015
EGGW 252050Z AUTO 27014KT 9999 NCD 01/M02 Q1014
TAF EGGW 251707Z 2518/2618 27011KT CAVOK
PROB30 2604/2610 8000
BECMG 2606/2609 20008KT BKN025
BECMG 2609/2612 BKN007
TEMPO 2610/2618 6000 RA
PROB40
TEMPO 2612/2618 3000 RADZ BR BKN003
EGSH 252150Z AUTO 26015KT 9999 BKN041/// 02/M00 Q1012
EGSH 252120Z AUTO 27015KT 9999 OVC037/// 03/00 Q1012
EGSH 252050Z AUTO 27015KT 9999 BKN037/// 03/00 Q1012
TAF EGSH 251952Z 2521/2606 26012KT 9999 FEW040
PROB30
TEMPO 2521/2603 27015G25KT
EGLC 252150Z AUTO 24007KT 9999 NCD 02/M02 Q1016
EGLC 252120Z AUTO 25008KT 9999 NCD 02/M01 Q1016
EGLC 252050Z AUTO 24010KT 9999 NCD 03/M01 Q1016
TAF EGLC 251701Z 2518/2522 27009KT 9999 FEW025
TAF EGMC 251358Z 2515/2517 28009KT CAVOK
EGLL 252150Z AUTO 26004KT 9999 NCD 01/M02 Q1016 NOSIG
EGLL 252120Z AUTO 25008KT 9999 NCD 01/M02 Q1016 NOSIG
EGLL 252050Z AUTO 25006KT 9999 NCD 02/M02 Q1016
TAF EGLL 251657Z 2518/2624 27010KT 9999 FEW040
BECMG 2521/2524 21005KT
PROB40 2600/2609 4000 BR
BECMG 2610/2613 BKN012
TEMPO 2610/2624 5000 -RA
PROB40
TEMPO 2612/2620 3000 RADZ BKN009
PROB30
TEMPO 2615/2621 23015G25KT
BECMG 2618/2621 BKN003
PROB30
TEMPO 2620/2624 2000 +RADZ BKN001
BECMG 2621/2624 28010KT
TAF EGHI 251658Z 2518/2523 28006KT 9999 FEW035
TAF EGHH 251658Z 2518/2522 30008KT 9999 FEW030
EGCC 252150Z AUTO 17004KT 130V220 9999 NCD M01/M02 Q1014 NOSIG
EGCC 252120Z AUTO VRB03KT 9999 NCD M01/M03 Q1014 NOSIG
EGCC 252050Z AUTO 22006KT 9999 NCD M01/M02 Q1014 NOSIG
TAF EGCC 251700Z 2518/2624 28010KT 9999 SCT030
BECMG 2518/2521 22005KT
BECMG 2609/2612 16010KT BKN012
TEMPO 2609/2621 7000 -RADZ BKN006
PROB30
TEMPO 2611/2617 3000 RA RADZ BKN003
BECMG 2621/2624 28007KT
EGNX 252150Z 20004KT 160V240 CAVOK M00/M03 Q1014
EGNX 252120Z 25011KT CAVOK 01/M02 Q1014
EGNX 252050Z 26012KT CAVOK M00/M03 Q1014
TAF EGNX 251658Z 2518/2618 26012KT 9999 SCT030
PROB30
TEMPO 2518/2601 27015G25KT
PROB30
TEMPO 2603/2608 8000
BECMG 2610/2613 19010KT BKN012
TEMPO 2612/2618 6000 RA BKN007
PROB30
TEMPO 2614/2618 18015G25KT 2000 +RADZ BKN004
EGGP 252150Z AUTO 23005KT 9999 NCD 02/M01 Q1014
EGGP 252120Z AUTO 23003KT 9999 NCD 01/M01 Q1014
EGGP 252050Z AUTO 26009KT 9999 NCD 01/M01 Q1014
TAF EGGP 251700Z 2518/2618 29010KT 9999 SCT020
BECMG 2521/2524 22004KT
BECMG 2608/2611 15010KT BKN014
TEMPO 2608/2618 7000 -RADZ BKN008
PROB30
TEMPO 2610/2616 3000 RA RADZ BKN004
TAF EGNM 251700Z 2518/2618 29012KT 9999 SCT030
PROB30
TEMPO 2518/2521 30015G25KT
BECMG 2603/2606 20004KT
BECMG 2608/2611 BKN010
TEMPO 2611/2618 7000 -RADZ BKN006
PROB30
TEMPO 2612/2618 4000 RADZ RA BKN002
EGBB 252150Z 23005KT CAVOK M00/M02 Q1015
EGBB 252120Z 22005KT CAVOK M00/M02 Q1015
EGBB 252050Z VRB02KT CAVOK M00/M02 Q1015
TAF EGBB 251658Z 2518/2618 27006KT 9999 FEW040
BECMG 2609/2612 18010KT BKN012
TEMPO 2610/2618 6000 RA BKN007
PROB30
TEMPO 2614/2618 2000 +RADZ BKN004
EGGD 252150Z AUTO 22009KT 9999 FEW024 SCT030 02/01 Q1016
EGGD 252120Z AUTO 22007KT 9999 BKN028 02/01 Q1016
EGGD 252050Z AUTO 22007KT 9999 BKN032 02/00 Q1016
TAF EGGD 251707Z 2518/2618 26007KT 9999 FEW030
BECMG 2607/2610 18010KT BKN007
TEMPO 2607/2613 6000 RA
PROB40
TEMPO 2610/2613 3000 RADZ BR BKN004
BECMG 2613/2616 6000 -RADZ BKN004
TEMPO 2613/2618 3000 RADZ BR
PROB30
TEMPO 2616/2618 0300 DZ FG BKN001
EGFF 252150Z AUTO 26010KT 220V290 9999 -RA FEW019 BKN024 BKN041 04/02 Q1016 RERA
EGFF 252120Z AUTO 25007KT 9999 SCT018 BKN040 BKN049 03/02 Q1016
EGFF 252050Z AUTO 26004KT 9999 BKN021 03/01 Q1016 RERA
TAF AMD EGFF 252024Z 2520/2618 29008KT 9999 FEW030
TEMPO 2520/2522 4000 SHRA BKN014
BECMG 2606/2609 18010KT BKN011
TEMPO 2606/2612 6000 RA
PROB40
TEMPO 2609/2612 3000 RADZ BKN008
BECMG 2613/2616 6000 -RADZ BKN008
TEMPO 2613/2618 3000 RADZ BR BKN004
TAF EGTE 251529Z 2515/2517 27006KT 9999 FEW030
EGPF 252150Z AUTO 22004KT 6000 -RA FEW010/// SCT017/// OVC021/// //////TCU 02/01
Q1011 RERA
EGPF 252120Z AUTO 20003KT 4300 RA SCT009/// BKN012/// BKN017/// //////TCU 02/02
Q1011
EGPF 252050Z AUTO 24001KT 7000 -RA FEW014/// BKN018/// OVC026/// //////TCU 02/01
Q1011
TAF AMD EGPF 251954Z 2519/2618 24008KT 9999 FEW030 SCT040
PROB30
TEMPO 2519/2521 4000 RADZ BKN010
TEMPO 2521/2612 3000 RADZ BR BKN006
PROB30 2600/2610 0300 FG OVC001
TEMPO 2612/2618 5000 RADZ BKN008
PROB30
TEMPO 2612/2618 2500 +RADZ BKN004
BECMG 2615/2618 07010KT
EGPH 252150Z 25005KT 9999 FEW037 01/M01 Q1010
EGPH 252120Z 26004KT CAVOK 01/00 Q1010
EGPH 252050Z 26004KT CAVOK 01/M00 Q1010
TAF EGPH 251659Z 2518/2618 25006KT 9999 FEW035
TEMPO 2521/2613 6000 -RADZ BKN010
PROB30
TEMPO 2602/2610 3000 -RASN BR BKN006
TEMPO 2613/2618 5000 RA -RADZ BKN008
PROB30
TEMPO 2613/2618 3000 +RA RADZ
BECMG 2615/2618 07010KT
EGPK 252150Z 14006KT 9999 -RA FEW019 SCT024 OVC040 04/02 Q1011
EGPK 252120Z 18006KT 9999 -RA BKN014 OVC024 04/03 Q1011
EGPK 252050Z 23008KT 8000 -RA BKN014 OVC024 04/03 Q1011
TAF EGPK 251659Z 2518/2618 28008KT 9999 FEW030 SCT040
TEMPO 2518/2618 6000 RA BKN010
PROB30
TEMPO 2518/2605 3000 +RA RADZ BKN006
BECMG 2611/2614 12010KT
PROB40
TEMPO 2612/2618 3000 +RADZ BKN008
BECMG 2616/2618 VRB03KT
EHAM 252155Z 28017KT 9999 FEW011 FEW020CB 05/02 Q1008 TEMPO 7000 -SHRA
EHAM 252125Z 28015KT 9999 FEW016 FEW020CB 04/02 Q1008 RESHRA TEMPO 7000 -SHRA
EHAM 252055Z 28022G32KT 7000 SHRA FEW016 FEW020CB SCT026 04/02 Q1007 TEMPO 9999
-SHRA
EHAM 252025Z 27019KT 240V300 9999 -SHRA FEW020CB SCT022 05/02 Q1007 TEMPO 5000
SHRA
TAF EHAM 251710Z 2518/2624 26017KT 9999 SCT025
TEMPO 2518/2608 6000 SHRA BKN018 SCT020CB
BECMG 2519/2522 28018G28KT
PROB40
TEMPO 2521/2603 32022G33KT
BECMG 2605/2608 29005KT
BECMG 2610/2613 26010KT
BECMG 2615/2618 21008KT
PROB30
TEMPO 2620/2623 SCT008 BKN012
BECMG 2621/2624 18014KT 7000 RA
LFLS 252200Z AUTO 35006KT 320V030 9999 -SN SCT018 BKN023 OVC062 01/M01 Q1016
LFLS 252130Z AUTO 33006KT 300V360 9999 -SNRA BKN024 OVC062 01/M01 Q1016
LFLS 252100Z AUTO 33007KT 9999 -SN BKN023 BKN030 OVC064 01/M01 Q1016
LFLS 252030Z AUTO 35006KT 320V020 9999 BKN023 OVC028 01/M01 Q1015
TAF LFLS 251400Z 2515/2615 35008KT 9999 BKN050
PROB40
TEMPO 2515/2516 4000 -SHRASN BKN025TCU
PROB40
TEMPO 2517/2524 3000 -SN BKN010
BECMG 2600/2602 CAVOK
PROB30
TEMPO 2600/2609 BKN004
LFLL 252200Z 33008KT 9999 BKN025 BKN066 02/M01 Q1017 NOSIG
LFLL 252130Z 35005KT 9999 BKN026 BKN053 02/M01 Q1017 NOSIG
LFLL 252100Z 35005KT 9999 SCT026 SCT040 BKN066 02/M01 Q1016 NOSIG
LFLL 252030Z 34008KT 9999 FEW033 SCT046 BKN060 03/M01 Q1016 NOSIG
TAF LFLL 251700Z 2518/2624 34005KT 9999 FEW030 BKN050
PROB30
TEMPO 2522/2608 BKN014
LFLC 252200Z AUTO 32003KT 290V360 9999 BKN046 BKN240 02/M05 Q1018 NOSIG
LFLC 252130Z AUTO 29003KT 9999 FEW033 OVC045 02/M04 Q1018 NOSIG
LFLC 252100Z AUTO 31004KT 9999 FEW044 BKN240 01/M04 Q1018 NOSIG
LFLC 252030Z AUTO 30003KT 270V330 9999 BKN041 BKN240 01/M04 Q1017 NOSIG
TAF LFLC 251700Z 2518/2618 34007KT 9999 BKN040
TEMPO 2521/2605 VRB02KT
BECMG 2605/2607 18008KT CAVOK
LFRD 252200Z AUTO 19003KT CAVOK 02/M02 Q1020 NOSIG
LFRD 252130Z AUTO 19004KT CAVOK 01/M02 Q1020 NOSIG
LFRD 252100Z AUTO 19003KT CAVOK 03/M02 Q1019 NOSIG
LFRD 252030Z AUTO 20003KT CAVOK 02/M02 Q1019 NOSIG
TAF LFRD 251700Z 2518/2618 VRB03KT CAVOK
BECMG 2606/2608 17012KT
TEMPO 2614/2618 18015G25KT 4000 RA OVC013
LFRC 252200Z AUTO 25009KT CAVOK 02/M02 Q1018
LFRC 252130Z AUTO 25009KT 9999 FEW034 02/M02 Q1018
LFRC 252100Z AUTO 25009KT 9999 SCT035 BKN042 03/M01 Q1018
LFRC 252030Z AUTO 25009KT 9999 FEW034 02/M02 Q1018
TAF LFRC 251400Z 2515/2524 32010KT 9999 SCT030
BECMG 2518/2520 26006KT
VHHH 252200Z 10004KT 8000 NSC 17/15 Q1017 NOSIG
VHHH 252130Z 08004KT 8000 NSC 17/14 Q1017 NOSIG
VHHH 252100Z VRB03KT 070V130 9000 NSC 18/15 Q1017 NOSIG
VHHH 252030Z 13003KT 060V230 9000 NSC 18/14 Q1017 NOSIG
TAF VHHH 251700Z 2518/2624 08005KT 9000 FEW030 TX23/2606Z TN18/2523Z TN18/2623Z
BECMG 2602/2604 27010KT
BECMG 2610/2612 VRB05KT